sensor_id;sensor_type;location;lat;lon;timestamp;temperature;humidity
27258;DHT22;62045;49.986;8.672;2022-09-09T00:00:43;24.50;48.20
27258;DHT22;62045;49.986;8.672;2022-09-09T00:05:55;24.50;48.20
27258;DHT22;62045;49.986;8.672;2022-09-09T00:11:01;24.50;48.20
27258;DHT22;62045;49.986;8.672;2022-09-09T00:16:08;24.60;48.20
27258;DHT22;62045;49.986;8.672;2022-09-09T00:21:14;24.50;48.20
27258;DHT22;62045;49.986;8.672;2022-09-09T00:26:22;24.50;48.20
27258;DHT22;62045;49.986;8.672;2022-09-09T00:31:27;24.50;48.10
27258;DHT22;62045;49.986;8.672;2022-09-09T00:36:32;24.50;48.10
27258;DHT22;62045;49.986;8.672;2022-09-09T00:41:43;24.50;48.10
27258;DHT22;62045;49.986;8.672;2022-09-09T00:46:56;24.50;48.10
27258;DHT22;62045;49.986;8.672;2022-09-09T00:52:12;24.40;48.10
27258;DHT22;62045;49.986;8.672;2022-09-09T00:57:26;24.40;48.10
27258;DHT22;62045;49.986;8.672;2022-09-09T01:02:29;24.40;48.10
27258;DHT22;62045;49.986;8.672;2022-09-09T01:07:34;24.40;48.10
27258;DHT22;62045;49.986;8.672;2022-09-09T01:12:38;24.40;48.20
27258;DHT22;62045;49.986;8.672;2022-09-09T01:17:56;24.30;48.10
27258;DHT22;62045;49.986;8.672;2022-09-09T01:29:01;24.30;48.10
27258;DHT22;62045;49.986;8.672;2022-09-09T01:34:12;24.30;48.20
27258;DHT22;62045;49.986;8.672;2022-09-09T01:39:15;24.30;48.20
27258;DHT22;62045;49.986;8.672;2022-09-09T01:44:19;24.20;48.20
27258;DHT22;62045;49.986;8.672;2022-09-09T01:49:20;24.30;48.30
27258;DHT22;62045;49.986;8.672;2022-09-09T01:54:22;24.30;48.30
27258;DHT22;62045;49.986;8.672;2022-09-09T01:59:45;24.30;48.30
27258;DHT22;62045;49.986;8.672;2022-09-09T02:04:52;24.30;48.20
27258;DHT22;62045;49.986;8.672;2022-09-09T02:10:01;24.30;48.20
27258;DHT22;62045;49.986;8.672;2022-09-09T02:15:10;24.30;48.20
27258;DHT22;62045;49.986;8.672;2022-09-09T02:20:22;24.30;48.20
27258;DHT22;62045;49.986;8.672;2022-09-09T02:25:29;24.30;48.20
27258;DHT22;62045;49.986;8.672;2022-09-09T02:30:38;24.30;48.10
27258;DHT22;62045;49.986;8.672;2022-09-09T02:35:40;24.30;48.10
27258;DHT22;62045;49.986;8.672;2022-09-09T02:40:42;24.20;48.00
27258;DHT22;62045;49.986;8.672;2022-09-09T02:45:53;24.30;48.10
27258;DHT22;62045;49.986;8.672;2022-09-09T02:51:04;24.20;48.10
27258;DHT22;62045;49.986;8.672;2022-09-09T02:56:10;24.20;48.10
27258;DHT22;62045;49.986;8.672;2022-09-09T03:01:18;24.20;48.10
27258;DHT22;62045;49.986;8.672;2022-09-09T03:06:19;24.20;48.10
27258;DHT22;62045;49.986;8.672;2022-09-09T03:11:25;24.20;48.10
27258;DHT22;62045;49.986;8.672;2022-09-09T03:16:28;24.20;48.10
27258;DHT22;62045;49.986;8.672;2022-09-09T03:21:29;24.10;48.10
27258;DHT22;62045;49.986;8.672;2022-09-09T03:26:31;24.10;48.10
27258;DHT22;62045;49.986;8.672;2022-09-09T03:31:33;24.10;48.20
27258;DHT22;62045;49.986;8.672;2022-09-09T03:36:34;24.10;48.20
27258;DHT22;62045;49.986;8.672;2022-09-09T03:41:36;24.00;48.10
27258;DHT22;62045;49.986;8.672;2022-09-09T03:46:38;24.10;48.20
27258;DHT22;62045;49.986;8.672;2022-09-09T03:51:39;24.10;48.30
27258;DHT22;62045;49.986;8.672;2022-09-09T03:56:41;24.10;48.20
27258;DHT22;62045;49.986;8.672;2022-09-09T04:01:45;24.10;48.20
27258;DHT22;62045;49.986;8.672;2022-09-09T04:06:46;24.10;48.20
27258;DHT22;62045;49.986;8.672;2022-09-09T04:11:47;24.10;48.20
27258;DHT22;62045;49.986;8.672;2022-09-09T04:16:50;24.10;48.80
27258;DHT22;62045;49.986;8.672;2022-09-09T04:21:51;24.20;48.20
27258;DHT22;62045;49.986;8.672;2022-09-09T04:26:55;24.10;48.10
27258;DHT22;62045;49.986;8.672;2022-09-09T04:31:58;24.10;48.70
27258;DHT22;62045;49.986;8.672;2022-09-09T04:36:59;24.10;48.10
27258;DHT22;62045;49.986;8.672;2022-09-09T04:42:00;24.10;48.10
27258;DHT22;62045;49.986;8.672;2022-09-09T04:47:03;24.00;48.10
27258;DHT22;62045;49.986;8.672;2022-09-09T04:52:04;24.00;48.10
27258;DHT22;62045;49.986;8.672;2022-09-09T04:57:07;24.00;48.10
27258;DHT22;62045;49.986;8.672;2022-09-09T05:02:09;24.00;48.30
27258;DHT22;62045;49.986;8.672;2022-09-09T05:07:10;24.00;48.20
27258;DHT22;62045;49.986;8.672;2022-09-09T05:12:11;23.90;48.10
27258;DHT22;62045;49.986;8.672;2022-09-09T05:17:18;23.90;48.10
27258;DHT22;62045;49.986;8.672;2022-09-09T05:22:20;23.90;48.10
27258;DHT22;62045;49.986;8.672;2022-09-09T05:27:23;23.90;48.20
27258;DHT22;62045;49.986;8.672;2022-09-09T05:32:26;23.90;48.20
27258;DHT22;62045;49.986;8.672;2022-09-09T05:37:27;23.90;48.20
27258;DHT22;62045;49.986;8.672;2022-09-09T05:42:30;23.90;48.20
27258;DHT22;62045;49.986;8.672;2022-09-09T05:47:32;23.90;48.30
27258;DHT22;62045;49.986;8.672;2022-09-09T05:52:33;23.90;48.30
27258;DHT22;62045;49.986;8.672;2022-09-09T05:57:34;23.90;48.20
27258;DHT22;62045;49.986;8.672;2022-09-09T06:02:37;23.90;48.20
27258;DHT22;62045;49.986;8.672;2022-09-09T06:07:38;23.90;48.20
27258;DHT22;62045;49.986;8.672;2022-09-09T06:12:39;23.90;48.20
27258;DHT22;62045;49.986;8.672;2022-09-09T06:17:42;23.90;48.20
27258;DHT22;62045;49.986;8.672;2022-09-09T06:22:43;23.90;48.10
27258;DHT22;62045;49.986;8.672;2022-09-09T06:27:48;23.90;48.10
27258;DHT22;62045;49.986;8.672;2022-09-09T06:32:51;23.90;48.10
27258;DHT22;62045;49.986;8.672;2022-09-09T06:37:52;23.90;48.10
27258;DHT22;62045;49.986;8.672;2022-09-09T06:42:53;23.90;48.10
27258;DHT22;62045;49.986;8.672;2022-09-09T06:48:18;23.90;48.10
27258;DHT22;62045;49.986;8.672;2022-09-09T06:53:19;23.80;48.10
27258;DHT22;62045;49.986;8.672;2022-09-09T06:58:21;23.80;48.10
27258;DHT22;62045;49.986;8.672;2022-09-09T07:03:23;23.80;48.10
27258;DHT22;62045;49.986;8.672;2022-09-09T07:08:24;23.80;48.10
27258;DHT22;62045;49.986;8.672;2022-09-09T07:13:26;23.80;48.10
27258;DHT22;62045;49.986;8.672;2022-09-09T07:18:30;23.80;48.40
27258;DHT22;62045;49.986;8.672;2022-09-09T07:23:32;23.80;48.30
27258;DHT22;62045;49.986;8.672;2022-09-09T07:28:33;23.80;48.60
27258;DHT22;62045;49.986;8.672;2022-09-09T07:33:36;23.80;48.70
27258;DHT22;62045;49.986;8.672;2022-09-09T07:38:38;23.80;48.80
27258;DHT22;62045;49.986;8.672;2022-09-09T07:43:39;23.80;48.80
27258;DHT22;62045;49.986;8.672;2022-09-09T07:48:45;23.80;48.90
27258;DHT22;62045;49.986;8.672;2022-09-09T07:53:46;23.80;48.90
27258;DHT22;62045;49.986;8.672;2022-09-09T07:58:48;23.90;48.90
27258;DHT22;62045;49.986;8.672;2022-09-09T08:03:55;23.90;48.90
27258;DHT22;62045;49.986;8.672;2022-09-09T08:08:56;23.90;48.90
27258;DHT22;62045;49.986;8.672;2022-09-09T08:13:58;23.90;48.80
27258;DHT22;62045;49.986;8.672;2022-09-09T08:19:01;23.90;48.80
27258;DHT22;62045;49.986;8.672;2022-09-09T08:24:03;23.90;48.80
27258;DHT22;62045;49.986;8.672;2022-09-09T08:29:07;23.90;48.90
27258;DHT22;62045;49.986;8.672;2022-09-09T08:34:09;23.90;48.90
27258;DHT22;62045;49.986;8.672;2022-09-09T08:39:12;23.90;49.00
27258;DHT22;62045;49.986;8.672;2022-09-09T08:44:19;23.90;49.10
27258;DHT22;62045;49.986;8.672;2022-09-09T08:49:55;23.90;49.10
27258;DHT22;62045;49.986;8.672;2022-09-09T08:55:05;23.80;49.20
27258;DHT22;62045;49.986;8.672;2022-09-09T09:00:13;23.80;49.20
27258;DHT22;62045;49.986;8.672;2022-09-09T09:05:20;23.80;49.60
27258;DHT22;62045;49.986;8.672;2022-09-09T09:10:35;23.80;49.90
27258;DHT22;62045;49.986;8.672;2022-09-09T09:15:38;23.80;50.30
27258;DHT22;62045;49.986;8.672;2022-09-09T09:20:54;23.70;50.40
27258;DHT22;62045;49.986;8.672;2022-09-09T09:26:00;23.70;50.50
27258;DHT22;62045;49.986;8.672;2022-09-09T09:31:04;23.70;50.50
27258;DHT22;62045;49.986;8.672;2022-09-09T09:36:09;23.70;50.60
27258;DHT22;62045;49.986;8.672;2022-09-09T09:41:13;23.70;50.60
27258;DHT22;62045;49.986;8.672;2022-09-09T09:46:21;23.70;50.60
27258;DHT22;62045;49.986;8.672;2022-09-09T09:51:24;23.70;50.40
27258;DHT22;62045;49.986;8.672;2022-09-09T09:56:27;23.80;50.30
27258;DHT22;62045;49.986;8.672;2022-09-09T10:01:31;23.80;50.30
27258;DHT22;62045;49.986;8.672;2022-09-09T10:06:37;23.80;50.30
27258;DHT22;62045;49.986;8.672;2022-09-09T10:11:46;23.80;50.20
27258;DHT22;62045;49.986;8.672;2022-09-09T10:17:05;23.90;50.10
27258;DHT22;62045;49.986;8.672;2022-09-09T10:22:23;23.90;50.00
27258;DHT22;62045;49.986;8.672;2022-09-09T10:27:32;23.90;50.00
27258;DHT22;62045;49.986;8.672;2022-09-09T10:32:37;23.90;49.90
27258;DHT22;62045;49.986;8.672;2022-09-09T10:38:00;23.90;49.80
27258;DHT22;62045;49.986;8.672;2022-09-09T10:43:14;23.90;49.80
27258;DHT22;62045;49.986;8.672;2022-09-09T10:48:30;23.80;49.70
27258;DHT22;62045;49.986;8.672;2022-09-09T10:53:41;23.80;49.70
27258;DHT22;62045;49.986;8.672;2022-09-09T10:58:49;23.80;49.70
27258;DHT22;62045;49.986;8.672;2022-09-09T11:03:56;23.80;49.70
27258;DHT22;62045;49.986;8.672;2022-09-09T11:09:00;23.70;49.90
27258;DHT22;62045;49.986;8.672;2022-09-09T11:14:05;23.70;50.10
27258;DHT22;62045;49.986;8.672;2022-09-09T11:19:14;23.70;50.20
27258;DHT22;62045;49.986;8.672;2022-09-09T11:24:22;23.70;50.30
27258;DHT22;62045;49.986;8.672;2022-09-09T11:29:45;23.70;50.30
27258;DHT22;62045;49.986;8.672;2022-09-09T11:34:54;23.70;50.50
27258;DHT22;62045;49.986;8.672;2022-09-09T11:40:09;23.70;50.40
27258;DHT22;62045;49.986;8.672;2022-09-09T11:45:23;23.80;50.30
27258;DHT22;62045;49.986;8.672;2022-09-09T11:50:30;23.80;50.20
27258;DHT22;62045;49.986;8.672;2022-09-09T11:55:34;23.80;50.10
27258;DHT22;62045;49.986;8.672;2022-09-09T12:00:36;23.90;50.10
27258;DHT22;62045;49.986;8.672;2022-09-09T12:05:39;23.90;50.00
27258;DHT22;62045;49.986;8.672;2022-09-09T12:10:53;23.90;50.00
27258;DHT22;62045;49.986;8.672;2022-09-09T12:15:56;23.90;49.90
27258;DHT22;62045;49.986;8.672;2022-09-09T12:21:03;23.90;49.90
27258;DHT22;62045;49.986;8.672;2022-09-09T12:26:27;23.90;49.80
27258;DHT22;62045;49.986;8.672;2022-09-09T12:31:34;23.90;49.70
27258;DHT22;62045;49.986;8.672;2022-09-09T12:36:40;23.90;49.70
27258;DHT22;62045;49.986;8.672;2022-09-09T12:41:51;23.80;49.70
27258;DHT22;62045;49.986;8.672;2022-09-09T12:46:52;23.80;49.70
27258;DHT22;62045;49.986;8.672;2022-09-09T12:51:54;23.80;49.70
27258;DHT22;62045;49.986;8.672;2022-09-09T12:56:57;23.80;49.70
27258;DHT22;62045;49.986;8.672;2022-09-09T13:01:58;23.80;49.70
27258;DHT22;62045;49.986;8.672;2022-09-09T13:07:06;23.80;49.80
27258;DHT22;62045;49.986;8.672;2022-09-09T13:12:14;23.70;49.80
27258;DHT22;62045;49.986;8.672;2022-09-09T13:17:20;23.70;49.80
27258;DHT22;62045;49.986;8.672;2022-09-09T13:22:27;23.70;49.70
27258;DHT22;62045;49.986;8.672;2022-09-09T13:27:33;23.70;49.70
27258;DHT22;62045;49.986;8.672;2022-09-09T13:32:34;23.80;49.60
27258;DHT22;62045;49.986;8.672;2022-09-09T13:37:37;23.80;49.60
27258;DHT22;62045;49.986;8.672;2022-09-09T13:42:40;23.80;49.50
27258;DHT22;62045;49.986;8.672;2022-09-09T13:47:42;23.80;49.40
27258;DHT22;62045;49.986;8.672;2022-09-09T13:52:43;23.90;49.40
27258;DHT22;62045;49.986;8.672;2022-09-09T13:57:52;23.90;49.40
27258;DHT22;62045;49.986;8.672;2022-09-09T14:02:53;23.90;49.30
27258;DHT22;62045;49.986;8.672;2022-09-09T14:07:54;23.90;49.20
27258;DHT22;62045;49.986;8.672;2022-09-09T14:12:56;23.90;49.20
27258;DHT22;62045;49.986;8.672;2022-09-09T14:17:57;23.90;49.30
27258;DHT22;62045;49.986;8.672;2022-09-09T14:22:58;23.80;49.30
27258;DHT22;62045;49.986;8.672;2022-09-09T14:28:00;23.80;49.30
27258;DHT22;62045;49.986;8.672;2022-09-09T14:33:01;23.80;49.40
27258;DHT22;62045;49.986;8.672;2022-09-09T14:38:03;23.80;49.40
27258;DHT22;62045;49.986;8.672;2022-09-09T14:43:06;23.80;49.40
27258;DHT22;62045;49.986;8.672;2022-09-09T14:48:07;23.80;49.50
27258;DHT22;62045;49.986;8.672;2022-09-09T14:53:08;23.70;49.50
27258;DHT22;62045;49.986;8.672;2022-09-09T14:58:10;23.70;49.40
27258;DHT22;62045;49.986;8.672;2022-09-09T15:03:11;23.70;50.10
27258;DHT22;62045;49.986;8.672;2022-09-09T15:08:11;23.70;49.40
27258;DHT22;62045;49.986;8.672;2022-09-09T15:13:14;23.70;49.40
27258;DHT22;62045;49.986;8.672;2022-09-09T15:18:15;23.70;49.40
27258;DHT22;62045;49.986;8.672;2022-09-09T15:23:16;23.70;49.40
27258;DHT22;62045;49.986;8.672;2022-09-09T15:28:18;23.70;49.30
27258;DHT22;62045;49.986;8.672;2022-09-09T15:33:20;23.80;49.30
27258;DHT22;62045;49.986;8.672;2022-09-09T15:38:21;23.80;49.30
27258;DHT22;62045;49.986;8.672;2022-09-09T15:43:24;23.80;49.20
27258;DHT22;62045;49.986;8.672;2022-09-09T15:48:30;23.80;49.20
27258;DHT22;62045;49.986;8.672;2022-09-09T15:53:31;23.90;49.20
27258;DHT22;62045;49.986;8.672;2022-09-09T15:58:34;23.90;49.10
27258;DHT22;62045;49.986;8.672;2022-09-09T16:03:36;23.80;49.10
27258;DHT22;62045;49.986;8.672;2022-09-09T16:08:39;23.80;49.10
27258;DHT22;62045;49.986;8.672;2022-09-09T16:13:43;23.80;49.10
27258;DHT22;62045;49.986;8.672;2022-09-09T16:18:45;23.80;49.10
27258;DHT22;62045;49.986;8.672;2022-09-09T16:23:47;23.70;49.10
27258;DHT22;62045;49.986;8.672;2022-09-09T16:28:49;23.70;49.10
27258;DHT22;62045;49.986;8.672;2022-09-09T16:33:51;23.70;49.10
27258;DHT22;62045;49.986;8.672;2022-09-09T16:38:52;23.70;49.10
27258;DHT22;62045;49.986;8.672;2022-09-09T16:43:55;23.70;49.10
27258;DHT22;62045;49.986;8.672;2022-09-09T16:48:57;23.70;49.10
27258;DHT22;62045;49.986;8.672;2022-09-09T16:53:59;23.70;49.10
27258;DHT22;62045;49.986;8.672;2022-09-09T16:59:04;23.70;49.10
27258;DHT22;62045;49.986;8.672;2022-09-09T17:04:07;23.70;49.10
27258;DHT22;62045;49.986;8.672;2022-09-09T17:09:10;23.70;49.10
27258;DHT22;62045;49.986;8.672;2022-09-09T17:14:15;23.70;49.10
27258;DHT22;62045;49.986;8.672;2022-09-09T17:19:16;23.70;49.10
27258;DHT22;62045;49.986;8.672;2022-09-09T17:24:17;23.70;49.10
27258;DHT22;62045;49.986;8.672;2022-09-09T17:29:19;23.70;49.10
27258;DHT22;62045;49.986;8.672;2022-09-09T17:34:20;23.80;49.00
27258;DHT22;62045;49.986;8.672;2022-09-09T17:39:21;23.80;49.00
27258;DHT22;62045;49.986;8.672;2022-09-09T17:44:23;23.80;48.90
27258;DHT22;62045;49.986;8.672;2022-09-09T17:49:24;23.80;48.90
27258;DHT22;62045;49.986;8.672;2022-09-09T17:54:25;23.80;48.90
27258;DHT22;62045;49.986;8.672;2022-09-09T17:59:27;23.70;48.80
27258;DHT22;62045;49.986;8.672;2022-09-09T18:04:28;23.70;48.90
27258;DHT22;62045;49.986;8.672;2022-09-09T18:09:29;23.70;48.80
27258;DHT22;62045;49.986;8.672;2022-09-09T18:14:32;23.70;48.80
27258;DHT22;62045;49.986;8.672;2022-09-09T18:19:33;23.70;48.80
27258;DHT22;62045;49.986;8.672;2022-09-09T18:24:33;23.70;48.90
27258;DHT22;62045;49.986;8.672;2022-09-09T18:29:36;23.70;48.90
27258;DHT22;62045;49.986;8.672;2022-09-09T18:34:36;23.60;48.80
27258;DHT22;62045;49.986;8.672;2022-09-09T18:39:37;23.60;48.80
27258;DHT22;62045;49.986;8.672;2022-09-09T18:44:39;23.60;48.90
27258;DHT22;62045;49.986;8.672;2022-09-09T18:49:40;23.60;48.90
27258;DHT22;62045;49.986;8.672;2022-09-09T18:54:41;23.60;48.90
27258;DHT22;62045;49.986;8.672;2022-09-09T18:59:43;23.60;48.90
27258;DHT22;62045;49.986;8.672;2022-09-09T19:04:44;23.60;48.90
27258;DHT22;62045;49.986;8.672;2022-09-09T19:09:45;23.60;48.90
27258;DHT22;62045;49.986;8.672;2022-09-09T19:14:47;23.60;48.90
27258;DHT22;62045;49.986;8.672;2022-09-09T19:19:48;23.60;48.90
27258;DHT22;62045;49.986;8.672;2022-09-09T19:24:49;23.70;48.90
27258;DHT22;62045;49.986;8.672;2022-09-09T19:29:51;23.70;48.80
27258;DHT22;62045;49.986;8.672;2022-09-09T19:34:52;23.70;48.80
27258;DHT22;62045;49.986;8.672;2022-09-09T19:39:53;23.70;48.80
27258;DHT22;62045;49.986;8.672;2022-09-09T19:44:55;23.70;48.80
27258;DHT22;62045;49.986;8.672;2022-09-09T19:49:56;23.70;48.70
27258;DHT22;62045;49.986;8.672;2022-09-09T19:54:56;23.60;48.70
27258;DHT22;62045;49.986;8.672;2022-09-09T19:59:59;23.60;48.70
27258;DHT22;62045;49.986;8.672;2022-09-09T20:04:59;23.60;48.70
27258;DHT22;62045;49.986;8.672;2022-09-09T20:10:00;23.60;48.70
27258;DHT22;62045;49.986;8.672;2022-09-09T20:15:03;23.50;48.70
27258;DHT22;62045;49.986;8.672;2022-09-09T20:20:04;23.50;48.70
27258;DHT22;62045;49.986;8.672;2022-09-09T20:25:06;23.50;48.70
27258;DHT22;62045;49.986;8.672;2022-09-09T20:30:09;23.50;48.80
27258;DHT22;62045;49.986;8.672;2022-09-09T20:35:10;23.50;48.80
27258;DHT22;62045;49.986;8.672;2022-09-09T20:40:11;23.50;48.80
27258;DHT22;62045;49.986;8.672;2022-09-09T20:45:13;23.50;48.80
27258;DHT22;62045;49.986;8.672;2022-09-09T20:50:14;23.50;48.80
27258;DHT22;62045;49.986;8.672;2022-09-09T20:55:15;23.40;48.80
27258;DHT22;62045;49.986;8.672;2022-09-09T21:00:18;23.50;48.90
27258;DHT22;62045;49.986;8.672;2022-09-09T21:05:19;23.50;48.80
27258;DHT22;62045;49.986;8.672;2022-09-09T21:10:19;23.50;49.00
27258;DHT22;62045;49.986;8.672;2022-09-09T21:15:21;23.50;49.10
27258;DHT22;62045;49.986;8.672;2022-09-09T21:20:22;23.60;49.20
27258;DHT22;62045;49.986;8.672;2022-09-09T21:25:23;23.60;49.10
27258;DHT22;62045;49.986;8.672;2022-09-09T21:30:25;23.60;49.10
27258;DHT22;62045;49.986;8.672;2022-09-09T21:35:26;23.60;49.10
27258;DHT22;62045;49.986;8.672;2022-09-09T21:40:27;23.60;49.10
27258;DHT22;62045;49.986;8.672;2022-09-09T21:45:30;23.50;49.00
27258;DHT22;62045;49.986;8.672;2022-09-09T21:50:34;23.50;49.00
27258;DHT22;62045;49.986;8.672;2022-09-09T21:55:37;23.50;49.10
27258;DHT22;62045;49.986;8.672;2022-09-09T22:00:40;23.50;49.10
27258;DHT22;62045;49.986;8.672;2022-09-09T22:05:43;23.50;49.10
27258;DHT22;62045;49.986;8.672;2022-09-09T22:10:45;23.50;49.10
27258;DHT22;62045;49.986;8.672;2022-09-09T22:15:47;23.40;49.10
27258;DHT22;62045;49.986;8.672;2022-09-09T22:20:48;23.40;49.10
27258;DHT22;62045;49.986;8.672;2022-09-09T22:25:49;23.40;49.10
27258;DHT22;62045;49.986;8.672;2022-09-09T22:30:51;23.40;49.20
27258;DHT22;62045;49.986;8.672;2022-09-09T22:35:53;23.40;49.20
27258;DHT22;62045;49.986;8.672;2022-09-09T22:40:54;23.30;49.10
27258;DHT22;62045;49.986;8.672;2022-09-09T22:45:56;23.30;49.20
27258;DHT22;62045;49.986;8.672;2022-09-09T22:51:00;23.30;49.20
27258;DHT22;62045;49.986;8.672;2022-09-09T22:56:03;23.30;49.20
27258;DHT22;62045;49.986;8.672;2022-09-09T23:01:10;23.40;49.20
27258;DHT22;62045;49.986;8.672;2022-09-09T23:06:12;23.40;49.20
27258;DHT22;62045;49.986;8.672;2022-09-09T23:11:13;23.40;49.20
27258;DHT22;62045;49.986;8.672;2022-09-09T23:16:18;23.40;49.10
27258;DHT22;62045;49.986;8.672;2022-09-09T23:21:20;23.50;49.20
27258;DHT22;62045;49.986;8.672;2022-09-09T23:26:23;23.40;49.10
27258;DHT22;62045;49.986;8.672;2022-09-09T23:31:27;23.40;49.10
27258;DHT22;62045;49.986;8.672;2022-09-09T23:36:28;23.40;49.10
27258;DHT22;62045;49.986;8.672;2022-09-09T23:41:31;23.30;49.00
27258;DHT22;62045;49.986;8.672;2022-09-09T23:46:33;23.30;49.10
27258;DHT22;62045;49.986;8.672;2022-09-09T23:51:36;23.30;49.10
27258;DHT22;62045;49.986;8.672;2022-09-09T23:56:38;23.30;49.10
